sensor_id;sensor_type;location;lat;lon;timestamp;temperature;humidity
11079;DHT22;5592;49.234;7.268;2023-03-14T00:01:18;9.60;99.90
11079;DHT22;5592;49.234;7.268;2023-03-14T00:03:45;9.60;99.90
11079;DHT22;5592;49.234;7.268;2023-03-14T00:06:43;9.60;99.90
11079;DHT22;5592;49.234;7.268;2023-03-14T00:09:09;9.60;99.90
11079;DHT22;5592;49.234;7.268;2023-03-14T00:11:35;9.70;99.90
11079;DHT22;5592;49.234;7.268;2023-03-14T00:14:00;9.60;99.90
11079;DHT22;5592;49.234;7.268;2023-03-14T00:16:26;9.60;99.90
11079;DHT22;5592;49.234;7.268;2023-03-14T00:18:52;9.60;99.90
11079;DHT22;5592;49.234;7.268;2023-03-14T00:21:19;9.60;99.90
11079;DHT22;5592;49.234;7.268;2023-03-14T00:23:45;9.60;99.90
11079;DHT22;5592;49.234;7.268;2023-03-14T00:26:16;9.70;99.90
11079;DHT22;5592;49.234;7.268;2023-03-14T00:28:42;9.70;99.90
11079;DHT22;5592;49.234;7.268;2023-03-14T00:31:10;9.70;99.90
11079;DHT22;5592;49.234;7.268;2023-03-14T00:33:36;9.70;99.90
11079;DHT22;5592;49.234;7.268;2023-03-14T00:36:05;9.70;99.90
11079;DHT22;5592;49.234;7.268;2023-03-14T00:38:32;9.70;99.90
11079;DHT22;5592;49.234;7.268;2023-03-14T00:40:58;9.80;99.90
11079;DHT22;5592;49.234;7.268;2023-03-14T00:43:24;9.80;99.90
11079;DHT22;5592;49.234;7.268;2023-03-14T00:45:51;9.80;99.90
11079;DHT22;5592;49.234;7.268;2023-03-14T00:48:18;9.80;99.90
11079;DHT22;5592;49.234;7.268;2023-03-14T00:50:44;9.90;99.90
11079;DHT22;5592;49.234;7.268;2023-03-14T00:53:09;9.90;99.90
11079;DHT22;5592;49.234;7.268;2023-03-14T00:55:39;9.90;99.90
11079;DHT22;5592;49.234;7.268;2023-03-14T01:00:41;9.90;99.90
11079;DHT22;5592;49.234;7.268;2023-03-14T01:03:10;9.90;99.90
11079;DHT22;5592;49.234;7.268;2023-03-14T01:05:36;9.90;99.90
11079;DHT22;5592;49.234;7.268;2023-03-14T01:08:02;9.90;99.90
11079;DHT22;5592;49.234;7.268;2023-03-14T01:10:29;9.80;99.90
11079;DHT22;5592;49.234;7.268;2023-03-14T01:12:55;9.80;99.90
11079;DHT22;5592;49.234;7.268;2023-03-14T01:15:21;9.80;99.90
11079;DHT22;5592;49.234;7.268;2023-03-14T01:17:46;9.80;99.90
11079;DHT22;5592;49.234;7.268;2023-03-14T01:20:14;9.80;99.90
11079;DHT22;5592;49.234;7.268;2023-03-14T01:22:40;9.80;99.90
11079;DHT22;5592;49.234;7.268;2023-03-14T01:25:11;9.80;99.90
11079;DHT22;5592;49.234;7.268;2023-03-14T01:27:36;9.70;99.90
11079;DHT22;5592;49.234;7.268;2023-03-14T01:30:03;9.70;99.90
11079;DHT22;5592;49.234;7.268;2023-03-14T01:32:29;9.70;99.90
11079;DHT22;5592;49.234;7.268;2023-03-14T01:34:55;9.70;99.90
11079;DHT22;5592;49.234;7.268;2023-03-14T01:37:20;9.70;99.90
11079;DHT22;5592;49.234;7.268;2023-03-14T01:39:46;9.70;99.90
11079;DHT22;5592;49.234;7.268;2023-03-14T01:42:13;9.70;99.90
11079;DHT22;5592;49.234;7.268;2023-03-14T01:44:59;9.70;99.90
11079;DHT22;5592;49.234;7.268;2023-03-14T01:47:26;9.80;99.90
11079;DHT22;5592;49.234;7.268;2023-03-14T01:54:57;9.80;99.90
11079;DHT22;5592;49.234;7.268;2023-03-14T01:57:33;9.90;99.90
11079;DHT22;5592;49.234;7.268;2023-03-14T02:00:05;9.90;99.90
11079;DHT22;5592;49.234;7.268;2023-03-14T02:02:49;9.80;99.90
11079;DHT22;5592;49.234;7.268;2023-03-14T02:05:18;9.80;99.90
11079;DHT22;5592;49.234;7.268;2023-03-14T02:07:56;9.80;99.90
11079;DHT22;5592;49.234;7.268;2023-03-14T02:10:25;9.90;99.90
11079;DHT22;5592;49.234;7.268;2023-03-14T02:12:54;9.90;99.90
11079;DHT22;5592;49.234;7.268;2023-03-14T02:15:21;9.90;99.90
11079;DHT22;5592;49.234;7.268;2023-03-14T02:17:47;9.90;99.90
11079;DHT22;5592;49.234;7.268;2023-03-14T02:20:40;9.90;99.90
11079;DHT22;5592;49.234;7.268;2023-03-14T02:23:07;9.90;99.90
11079;DHT22;5592;49.234;7.268;2023-03-14T02:25:53;9.90;99.90
11079;DHT22;5592;49.234;7.268;2023-03-14T02:28:21;9.90;99.90
11079;DHT22;5592;49.234;7.268;2023-03-14T02:30:47;9.90;99.90
11079;DHT22;5592;49.234;7.268;2023-03-14T02:33:15;9.90;99.90
11079;DHT22;5592;49.234;7.268;2023-03-14T02:35:50;9.90;99.90
11079;DHT22;5592;49.234;7.268;2023-03-14T02:38:29;9.90;99.90
11079;DHT22;5592;49.234;7.268;2023-03-14T02:40:56;9.90;99.90
11079;DHT22;5592;49.234;7.268;2023-03-14T02:43:22;9.90;99.90
11079;DHT22;5592;49.234;7.268;2023-03-14T02:45:49;9.90;99.90
11079;DHT22;5592;49.234;7.268;2023-03-14T02:50:48;9.90;99.90
11079;DHT22;5592;49.234;7.268;2023-03-14T02:53:19;9.90;99.90
11079;DHT22;5592;49.234;7.268;2023-03-14T02:55:50;9.80;99.90
11079;DHT22;5592;49.234;7.268;2023-03-14T02:58:16;9.80;99.90
11079;DHT22;5592;49.234;7.268;2023-03-14T03:00:42;9.80;99.90
11079;DHT22;5592;49.234;7.268;2023-03-14T03:03:08;9.80;99.90
11079;DHT22;5592;49.234;7.268;2023-03-14T03:05:33;9.80;99.90
11079;DHT22;5592;49.234;7.268;2023-03-14T03:07:59;9.80;99.90
11079;DHT22;5592;49.234;7.268;2023-03-14T03:10:26;9.80;99.90
11079;DHT22;5592;49.234;7.268;2023-03-14T03:12:51;9.80;99.90
11079;DHT22;5592;49.234;7.268;2023-03-14T03:15:17;9.80;99.90
11079;DHT22;5592;49.234;7.268;2023-03-14T03:17:43;9.80;99.90
11079;DHT22;5592;49.234;7.268;2023-03-14T03:20:09;9.80;99.90
11079;DHT22;5592;49.234;7.268;2023-03-14T03:22:38;9.80;99.90
11079;DHT22;5592;49.234;7.268;2023-03-14T03:25:05;9.80;99.90
11079;DHT22;5592;49.234;7.268;2023-03-14T03:27:32;9.70;99.90
11079;DHT22;5592;49.234;7.268;2023-03-14T03:29:59;9.70;99.90
11079;DHT22;5592;49.234;7.268;2023-03-14T03:32:25;9.70;99.90
11079;DHT22;5592;49.234;7.268;2023-03-14T03:34:51;9.70;99.90
11079;DHT22;5592;49.234;7.268;2023-03-14T03:37:19;9.80;99.90
11079;DHT22;5592;49.234;7.268;2023-03-14T03:39:45;9.70;99.90
11079;DHT22;5592;49.234;7.268;2023-03-14T03:42:10;9.70;99.90
11079;DHT22;5592;49.234;7.268;2023-03-14T03:44:36;9.70;99.90
11079;DHT22;5592;49.234;7.268;2023-03-14T03:47:02;9.70;99.90
11079;DHT22;5592;49.234;7.268;2023-03-14T03:49:29;9.60;99.90
11079;DHT22;5592;49.234;7.268;2023-03-14T03:51:55;9.60;99.90
11079;DHT22;5592;49.234;7.268;2023-03-14T03:54:21;9.60;99.90
11079;DHT22;5592;49.234;7.268;2023-03-14T03:56:46;9.60;99.90
11079;DHT22;5592;49.234;7.268;2023-03-14T03:59:12;9.60;99.90
11079;DHT22;5592;49.234;7.268;2023-03-14T04:01:38;9.60;99.90
11079;DHT22;5592;49.234;7.268;2023-03-14T04:04:03;9.60;99.90
11079;DHT22;5592;49.234;7.268;2023-03-14T04:06:29;9.60;99.90
11079;DHT22;5592;49.234;7.268;2023-03-14T04:09:01;9.60;99.90
11079;DHT22;5592;49.234;7.268;2023-03-14T04:11:26;9.60;99.90
11079;DHT22;5592;49.234;7.268;2023-03-14T04:13:52;9.60;99.90
11079;DHT22;5592;49.234;7.268;2023-03-14T04:16:20;9.60;99.90
11079;DHT22;5592;49.234;7.268;2023-03-14T04:18:46;9.50;99.90
11079;DHT22;5592;49.234;7.268;2023-03-14T04:21:12;9.50;99.90
11079;DHT22;5592;49.234;7.268;2023-03-14T04:23:38;9.50;99.90
11079;DHT22;5592;49.234;7.268;2023-03-14T04:26:03;9.50;99.90
11079;DHT22;5592;49.234;7.268;2023-03-14T04:28:29;9.50;99.90
11079;DHT22;5592;49.234;7.268;2023-03-14T04:30:55;9.50;99.90
11079;DHT22;5592;49.234;7.268;2023-03-14T04:33:20;9.50;99.90
11079;DHT22;5592;49.234;7.268;2023-03-14T04:35:46;9.50;99.90
11079;DHT22;5592;49.234;7.268;2023-03-14T04:38:12;9.50;99.90
11079;DHT22;5592;49.234;7.268;2023-03-14T04:40:39;9.50;99.90
11079;DHT22;5592;49.234;7.268;2023-03-14T04:43:06;9.50;99.90
11079;DHT22;5592;49.234;7.268;2023-03-14T04:45:32;9.50;99.90
11079;DHT22;5592;49.234;7.268;2023-03-14T04:47:58;9.50;99.90
11079;DHT22;5592;49.234;7.268;2023-03-14T04:50:23;9.50;99.90
11079;DHT22;5592;49.234;7.268;2023-03-14T04:52:49;9.50;99.90
11079;DHT22;5592;49.234;7.268;2023-03-14T04:55:15;9.40;99.90
11079;DHT22;5592;49.234;7.268;2023-03-14T04:57:40;9.40;99.90
11079;DHT22;5592;49.234;7.268;2023-03-14T05:00:07;9.40;99.90
11079;DHT22;5592;49.234;7.268;2023-03-14T05:02:33;9.40;99.90
11079;DHT22;5592;49.234;7.268;2023-03-14T05:04:59;9.40;99.90
11079;DHT22;5592;49.234;7.268;2023-03-14T05:07:24;9.30;99.90
11079;DHT22;5592;49.234;7.268;2023-03-14T05:09:50;9.30;99.90
11079;DHT22;5592;49.234;7.268;2023-03-14T05:12:15;9.30;99.90
11079;DHT22;5592;49.234;7.268;2023-03-14T05:14:41;9.30;99.90
11079;DHT22;5592;49.234;7.268;2023-03-14T05:17:07;9.30;99.90
11079;DHT22;5592;49.234;7.268;2023-03-14T05:19:32;9.30;99.90
11079;DHT22;5592;49.234;7.268;2023-03-14T05:21:58;9.30;99.90
11079;DHT22;5592;49.234;7.268;2023-03-14T05:24:28;9.20;99.90
11079;DHT22;5592;49.234;7.268;2023-03-14T05:26:53;9.20;99.90
11079;DHT22;5592;49.234;7.268;2023-03-14T05:29:22;9.10;99.90
11079;DHT22;5592;49.234;7.268;2023-03-14T05:31:47;9.10;99.90
11079;DHT22;5592;49.234;7.268;2023-03-14T05:34:13;9.00;99.90
11079;DHT22;5592;49.234;7.268;2023-03-14T05:36:38;9.00;99.90
11079;DHT22;5592;49.234;7.268;2023-03-14T05:39:04;8.90;99.90
11079;DHT22;5592;49.234;7.268;2023-03-14T05:41:30;8.90;99.90
11079;DHT22;5592;49.234;7.268;2023-03-14T05:43:55;8.90;99.90
11079;DHT22;5592;49.234;7.268;2023-03-14T05:46:21;8.80;99.90
11079;DHT22;5592;49.234;7.268;2023-03-14T05:48:46;8.80;99.90
11079;DHT22;5592;49.234;7.268;2023-03-14T05:51:12;8.80;99.90
11079;DHT22;5592;49.234;7.268;2023-03-14T05:53:38;8.80;99.90
11079;DHT22;5592;49.234;7.268;2023-03-14T05:56:06;8.80;99.90
11079;DHT22;5592;49.234;7.268;2023-03-14T05:58:32;8.80;99.90
11079;DHT22;5592;49.234;7.268;2023-03-14T06:01:00;8.80;99.90
11079;DHT22;5592;49.234;7.268;2023-03-14T06:03:26;8.80;99.90
11079;DHT22;5592;49.234;7.268;2023-03-14T06:05:52;8.80;99.90
11079;DHT22;5592;49.234;7.268;2023-03-14T06:08:17;8.80;99.90
11079;DHT22;5592;49.234;7.268;2023-03-14T06:10:46;8.80;99.90
11079;DHT22;5592;49.234;7.268;2023-03-14T06:13:12;8.70;99.90
11079;DHT22;5592;49.234;7.268;2023-03-14T06:15:38;8.70;99.90
11079;DHT22;5592;49.234;7.268;2023-03-14T06:18:06;8.70;99.90
11079;DHT22;5592;49.234;7.268;2023-03-14T06:20:32;8.70;99.90
11079;DHT22;5592;49.234;7.268;2023-03-14T06:22:58;8.70;99.90
11079;DHT22;5592;49.234;7.268;2023-03-14T06:25:24;8.70;99.90
11079;DHT22;5592;49.234;7.268;2023-03-14T06:27:50;8.70;99.90
11079;DHT22;5592;49.234;7.268;2023-03-14T06:30:16;8.70;99.90
11079;DHT22;5592;49.234;7.268;2023-03-14T06:32:42;8.70;99.90
11079;DHT22;5592;49.234;7.268;2023-03-14T06:35:08;8.70;99.90
11079;DHT22;5592;49.234;7.268;2023-03-14T06:37:33;8.70;99.90
11079;DHT22;5592;49.234;7.268;2023-03-14T06:39:59;8.80;99.90
11079;DHT22;5592;49.234;7.268;2023-03-14T06:42:25;8.80;99.90
11079;DHT22;5592;49.234;7.268;2023-03-14T06:44:53;8.90;99.90
11079;DHT22;5592;49.234;7.268;2023-03-14T06:47:19;8.90;99.90
11079;DHT22;5592;49.234;7.268;2023-03-14T06:49:44;8.90;99.90
11079;DHT22;5592;49.234;7.268;2023-03-14T06:52:10;8.90;99.90
11079;DHT22;5592;49.234;7.268;2023-03-14T06:54:36;9.00;99.90
11079;DHT22;5592;49.234;7.268;2023-03-14T06:57:01;9.10;99.90
11079;DHT22;5592;49.234;7.268;2023-03-14T07:01:57;9.20;99.90
11079;DHT22;5592;49.234;7.268;2023-03-14T07:04:22;9.30;99.90
11079;DHT22;5592;49.234;7.268;2023-03-14T07:06:48;9.30;99.90
11079;DHT22;5592;49.234;7.268;2023-03-14T07:09:14;9.40;99.90
11079;DHT22;5592;49.234;7.268;2023-03-14T07:11:42;9.40;99.90
11079;DHT22;5592;49.234;7.268;2023-03-14T07:14:08;9.50;99.90
11079;DHT22;5592;49.234;7.268;2023-03-14T07:16:34;9.80;99.90
11079;DHT22;5592;49.234;7.268;2023-03-14T07:19:00;9.90;99.90
11079;DHT22;5592;49.234;7.268;2023-03-14T07:21:27;10.10;99.90
11079;DHT22;5592;49.234;7.268;2023-03-14T07:23:53;10.00;99.90
11079;DHT22;5592;49.234;7.268;2023-03-14T07:26:22;9.90;99.90
11079;DHT22;5592;49.234;7.268;2023-03-14T07:28:48;9.80;99.90
11079;DHT22;5592;49.234;7.268;2023-03-14T07:31:13;9.80;99.90
11079;DHT22;5592;49.234;7.268;2023-03-14T07:33:40;9.80;99.90
11079;DHT22;5592;49.234;7.268;2023-03-14T07:36:06;9.90;99.90
11079;DHT22;5592;49.234;7.268;2023-03-14T07:38:32;9.80;99.90
11079;DHT22;5592;49.234;7.268;2023-03-14T07:40:59;9.80;99.90
11079;DHT22;5592;49.234;7.268;2023-03-14T07:43:28;9.80;99.90
11079;DHT22;5592;49.234;7.268;2023-03-14T07:45:54;9.80;99.90
11079;DHT22;5592;49.234;7.268;2023-03-14T07:48:20;9.90;99.90
11079;DHT22;5592;49.234;7.268;2023-03-14T07:50:49;10.00;99.90
11079;DHT22;5592;49.234;7.268;2023-03-14T07:53:19;10.20;99.90
11079;DHT22;5592;49.234;7.268;2023-03-14T07:55:45;10.20;99.90
11079;DHT22;5592;49.234;7.268;2023-03-14T07:58:11;10.10;99.90
11079;DHT22;5592;49.234;7.268;2023-03-14T08:00:37;10.00;99.90
11079;DHT22;5592;49.234;7.268;2023-03-14T08:03:03;10.00;99.90
11079;DHT22;5592;49.234;7.268;2023-03-14T08:05:28;10.00;99.90
11079;DHT22;5592;49.234;7.268;2023-03-14T08:07:54;10.20;99.90
11079;DHT22;5592;49.234;7.268;2023-03-14T08:10:20;10.20;99.90
11079;DHT22;5592;49.234;7.268;2023-03-14T08:12:57;10.20;99.90
11079;DHT22;5592;49.234;7.268;2023-03-14T08:15:24;10.20;99.90
11079;DHT22;5592;49.234;7.268;2023-03-14T08:17:50;10.10;99.90
11079;DHT22;5592;49.234;7.268;2023-03-14T08:20:27;10.10;99.90
11079;DHT22;5592;49.234;7.268;2023-03-14T08:22:58;10.20;99.90
11079;DHT22;5592;49.234;7.268;2023-03-14T08:25:25;10.30;99.90
11079;DHT22;5592;49.234;7.268;2023-03-14T08:27:51;10.30;99.90
11079;DHT22;5592;49.234;7.268;2023-03-14T08:30:18;10.20;99.90
11079;DHT22;5592;49.234;7.268;2023-03-14T08:32:44;10.10;99.90
11079;DHT22;5592;49.234;7.268;2023-03-14T08:35:10;10.20;99.90
11079;DHT22;5592;49.234;7.268;2023-03-14T08:37:36;10.20;99.90
11079;DHT22;5592;49.234;7.268;2023-03-14T08:40:03;10.30;99.90
11079;DHT22;5592;49.234;7.268;2023-03-14T08:42:33;10.40;99.90
11079;DHT22;5592;49.234;7.268;2023-03-14T08:44:58;10.30;99.90
11079;DHT22;5592;49.234;7.268;2023-03-14T08:47:24;10.10;99.90
11079;DHT22;5592;49.234;7.268;2023-03-14T08:49:49;10.10;99.90
11079;DHT22;5592;49.234;7.268;2023-03-14T08:52:15;10.10;99.90
11079;DHT22;5592;49.234;7.268;2023-03-14T08:54:45;10.20;99.90
11079;DHT22;5592;49.234;7.268;2023-03-14T08:57:13;10.20;99.90
11079;DHT22;5592;49.234;7.268;2023-03-14T08:59:39;10.30;99.90
11079;DHT22;5592;49.234;7.268;2023-03-14T09:02:05;10.30;99.90
11079;DHT22;5592;49.234;7.268;2023-03-14T09:04:32;10.50;99.90
11079;DHT22;5592;49.234;7.268;2023-03-14T09:06:58;10.60;99.90
11079;DHT22;5592;49.234;7.268;2023-03-14T09:09:27;10.60;99.90
11079;DHT22;5592;49.234;7.268;2023-03-14T09:11:53;10.70;99.90
11079;DHT22;5592;49.234;7.268;2023-03-14T09:14:18;10.60;99.90
11079;DHT22;5592;49.234;7.268;2023-03-14T09:16:44;10.60;99.90
11079;DHT22;5592;49.234;7.268;2023-03-14T09:19:10;10.60;99.90
11079;DHT22;5592;49.234;7.268;2023-03-14T09:21:36;10.60;99.90
11079;DHT22;5592;49.234;7.268;2023-03-14T09:24:02;10.40;99.90
11079;DHT22;5592;49.234;7.268;2023-03-14T09:26:31;10.30;99.90
11079;DHT22;5592;49.234;7.268;2023-03-14T09:28:57;10.40;99.90
11079;DHT22;5592;49.234;7.268;2023-03-14T09:31:23;10.40;99.90
11079;DHT22;5592;49.234;7.268;2023-03-14T09:33:49;10.40;99.90
11079;DHT22;5592;49.234;7.268;2023-03-14T09:36:14;10.20;99.90
11079;DHT22;5592;49.234;7.268;2023-03-14T09:38:40;10.20;99.90
11079;DHT22;5592;49.234;7.268;2023-03-14T09:41:19;10.30;99.90
11079;DHT22;5592;49.234;7.268;2023-03-14T09:43:47;10.20;99.90
11079;DHT22;5592;49.234;7.268;2023-03-14T09:46:16;10.30;99.90
11079;DHT22;5592;49.234;7.268;2023-03-14T09:48:43;10.10;99.90
11079;DHT22;5592;49.234;7.268;2023-03-14T09:51:15;10.00;99.90
11079;DHT22;5592;49.234;7.268;2023-03-14T09:53:48;10.00;99.90
11079;DHT22;5592;49.234;7.268;2023-03-14T09:56:29;9.90;99.90
11079;DHT22;5592;49.234;7.268;2023-03-14T09:59:03;9.80;99.90
11079;DHT22;5592;49.234;7.268;2023-03-14T10:01:44;9.70;99.90
11079;DHT22;5592;49.234;7.268;2023-03-14T10:04:17;9.80;99.90
11079;DHT22;5592;49.234;7.268;2023-03-14T10:06:48;9.90;99.90
11079;DHT22;5592;49.234;7.268;2023-03-14T10:09:21;10.20;99.90
11079;DHT22;5592;49.234;7.268;2023-03-14T10:11:58;10.10;99.90
11079;DHT22;5592;49.234;7.268;2023-03-14T10:14:34;10.00;99.90
11079;DHT22;5592;49.234;7.268;2023-03-14T10:17:12;9.80;99.90
11079;DHT22;5592;49.234;7.268;2023-03-14T10:19:57;9.70;99.90
11079;DHT22;5592;49.234;7.268;2023-03-14T10:22:26;9.50;99.90
11079;DHT22;5592;49.234;7.268;2023-03-14T10:24:55;9.40;99.90
11079;DHT22;5592;49.234;7.268;2023-03-14T10:27:31;9.20;99.90
11079;DHT22;5592;49.234;7.268;2023-03-14T10:29:59;9.00;99.90
11079;DHT22;5592;49.234;7.268;2023-03-14T10:32:37;8.90;99.90
11079;DHT22;5592;49.234;7.268;2023-03-14T10:37:31;8.80;99.90
11079;DHT22;5592;49.234;7.268;2023-03-14T10:40:03;8.70;99.90
11079;DHT22;5592;49.234;7.268;2023-03-14T10:42:33;8.70;99.90
11079;DHT22;5592;49.234;7.268;2023-03-14T10:45:05;8.70;99.90
11079;DHT22;5592;49.234;7.268;2023-03-14T10:47:33;8.50;99.90
11079;DHT22;5592;49.234;7.268;2023-03-14T10:50:26;8.50;99.90
11079;DHT22;5592;49.234;7.268;2023-03-14T10:52:53;8.50;99.90
11079;DHT22;5592;49.234;7.268;2023-03-14T10:55:19;8.40;99.90
11079;DHT22;5592;49.234;7.268;2023-03-14T10:57:45;8.40;99.90
11079;DHT22;5592;49.234;7.268;2023-03-14T11:00:21;8.30;99.90
11079;DHT22;5592;49.234;7.268;2023-03-14T11:03:08;8.20;99.90
11079;DHT22;5592;49.234;7.268;2023-03-14T11:05:48;8.10;99.90
11079;DHT22;5592;49.234;7.268;2023-03-14T11:08:41;8.00;99.90
11079;DHT22;5592;49.234;7.268;2023-03-14T11:11:14;7.90;99.90
11079;DHT22;5592;49.234;7.268;2023-03-14T11:13:54;7.60;99.90
11079;DHT22;5592;49.234;7.268;2023-03-14T11:16:31;7.60;99.90
11079;DHT22;5592;49.234;7.268;2023-03-14T11:19:37;7.60;99.90
11079;DHT22;5592;49.234;7.268;2023-03-14T11:22:23;7.70;99.90
11079;DHT22;5592;49.234;7.268;2023-03-14T11:27:48;8.10;99.90
11079;DHT22;5592;49.234;7.268;2023-03-14T11:30:26;8.50;99.90
11079;DHT22;5592;49.234;7.268;2023-03-14T11:35:39;9.40;99.90
11079;DHT22;5592;49.234;7.268;2023-03-14T11:40:47;10.00;99.90
11079;DHT22;5592;49.234;7.268;2023-03-14T11:43:20;9.80;99.90
11079;DHT22;5592;49.234;7.268;2023-03-14T11:45:48;10.00;99.90
11079;DHT22;5592;49.234;7.268;2023-03-14T11:48:29;10.20;99.90
11079;DHT22;5592;49.234;7.268;2023-03-14T11:51:00;10.10;99.90
11079;DHT22;5592;49.234;7.268;2023-03-14T11:53:57;9.90;99.90
11079;DHT22;5592;49.234;7.268;2023-03-14T11:56:34;9.60;99.90
11079;DHT22;5592;49.234;7.268;2023-03-14T11:59:18;9.60;99.90
11079;DHT22;5592;49.234;7.268;2023-03-14T12:01:53;9.50;99.90
11079;DHT22;5592;49.234;7.268;2023-03-14T12:05:14;9.70;99.90
11079;DHT22;5592;49.234;7.268;2023-03-14T12:16:43;11.00;99.90
11079;DHT22;5592;49.234;7.268;2023-03-14T12:21:53;10.70;99.90
11079;DHT22;5592;49.234;7.268;2023-03-14T12:24:26;10.60;99.90
11079;DHT22;5592;49.234;7.268;2023-03-14T12:26:59;10.60;99.90
11079;DHT22;5592;49.234;7.268;2023-03-14T12:29:24;10.40;99.90
11079;DHT22;5592;49.234;7.268;2023-03-14T12:32:20;10.70;99.90
11079;DHT22;5592;49.234;7.268;2023-03-14T12:34:46;10.80;99.90
11079;DHT22;5592;49.234;7.268;2023-03-14T12:43:02;10.50;99.90
11079;DHT22;5592;49.234;7.268;2023-03-14T12:45:36;10.20;99.90
11079;DHT22;5592;49.234;7.268;2023-03-14T12:48:14;10.20;99.90
11079;DHT22;5592;49.234;7.268;2023-03-14T12:51:12;10.20;99.90
11079;DHT22;5592;49.234;7.268;2023-03-14T13:01:33;10.30;99.90
11079;DHT22;5592;49.234;7.268;2023-03-14T13:04:07;10.20;99.90
11079;DHT22;5592;49.234;7.268;2023-03-14T13:06:53;10.10;99.90
11079;DHT22;5592;49.234;7.268;2023-03-14T13:12:16;10.30;99.90
11079;DHT22;5592;49.234;7.268;2023-03-14T13:14:48;10.40;99.90
11079;DHT22;5592;49.234;7.268;2023-03-14T13:17:18;10.40;99.90
11079;DHT22;5592;49.234;7.268;2023-03-14T13:19:52;10.30;99.90
11079;DHT22;5592;49.234;7.268;2023-03-14T13:22:26;10.00;99.90
11079;DHT22;5592;49.234;7.268;2023-03-14T13:25:21;10.00;99.90
11079;DHT22;5592;49.234;7.268;2023-03-14T13:27:49;9.80;99.90
11079;DHT22;5592;49.234;7.268;2023-03-14T13:32:50;9.90;99.90
11079;DHT22;5592;49.234;7.268;2023-03-14T13:35:22;10.00;99.90
11079;DHT22;5592;49.234;7.268;2023-03-14T13:37:54;10.10;99.90
11079;DHT22;5592;49.234;7.268;2023-03-14T13:40:25;10.20;99.90
11079;DHT22;5592;49.234;7.268;2023-03-14T13:43:04;10.00;99.90
11079;DHT22;5592;49.234;7.268;2023-03-14T13:45:30;9.90;99.90
11079;DHT22;5592;49.234;7.268;2023-03-14T13:47:56;9.90;99.90
11079;DHT22;5592;49.234;7.268;2023-03-14T13:50:21;10.30;99.90
11079;DHT22;5592;49.234;7.268;2023-03-14T13:52:55;10.50;99.90
11079;DHT22;5592;49.234;7.268;2023-03-14T13:55:21;10.70;99.90
11079;DHT22;5592;49.234;7.268;2023-03-14T13:57:50;11.00;99.90
11079;DHT22;5592;49.234;7.268;2023-03-14T14:00:25;11.00;99.90
11079;DHT22;5592;49.234;7.268;2023-03-14T14:02:58;11.10;99.90
11079;DHT22;5592;49.234;7.268;2023-03-14T14:05:27;11.20;99.90
11079;DHT22;5592;49.234;7.268;2023-03-14T14:07:54;11.20;99.90
11079;DHT22;5592;49.234;7.268;2023-03-14T14:10:20;10.90;99.90
11079;DHT22;5592;49.234;7.268;2023-03-14T14:12:55;10.70;99.90
11079;DHT22;5592;49.234;7.268;2023-03-14T14:15:28;10.50;99.90
11079;DHT22;5592;49.234;7.268;2023-03-14T14:18:04;10.40;99.90
11079;DHT22;5592;49.234;7.268;2023-03-14T14:20:35;10.60;99.90
11079;DHT22;5592;49.234;7.268;2023-03-14T14:23:10;10.50;99.90
11079;DHT22;5592;49.234;7.268;2023-03-14T14:25:36;10.60;99.90
11079;DHT22;5592;49.234;7.268;2023-03-14T14:28:29;10.60;99.90
11079;DHT22;5592;49.234;7.268;2023-03-14T14:33:42;10.80;99.90
11079;DHT22;5592;49.234;7.268;2023-03-14T14:36:23;10.50;99.90
11079;DHT22;5592;49.234;7.268;2023-03-14T14:38:57;10.30;99.90
11079;DHT22;5592;49.234;7.268;2023-03-14T14:41:27;10.20;99.90
11079;DHT22;5592;49.234;7.268;2023-03-14T14:43:55;10.10;99.90
11079;DHT22;5592;49.234;7.268;2023-03-14T14:46:21;10.00;99.90
11079;DHT22;5592;49.234;7.268;2023-03-14T14:48:47;9.90;99.90
11079;DHT22;5592;49.234;7.268;2023-03-14T14:51:24;9.80;99.90
11079;DHT22;5592;49.234;7.268;2023-03-14T14:54:04;9.70;99.90
11079;DHT22;5592;49.234;7.268;2023-03-14T14:56:35;9.30;99.90
11079;DHT22;5592;49.234;7.268;2023-03-14T14:59:02;9.30;99.90
11079;DHT22;5592;49.234;7.268;2023-03-14T15:01:38;9.40;99.90
11079;DHT22;5592;49.234;7.268;2023-03-14T15:04:14;9.60;99.90
11079;DHT22;5592;49.234;7.268;2023-03-14T15:06:46;9.60;99.90
11079;DHT22;5592;49.234;7.268;2023-03-14T15:09:13;9.50;99.90
11079;DHT22;5592;49.234;7.268;2023-03-14T15:11:39;9.50;99.90
11079;DHT22;5592;49.234;7.268;2023-03-14T15:14:07;9.20;99.90
11079;DHT22;5592;49.234;7.268;2023-03-14T15:16:33;9.00;99.90
11079;DHT22;5592;49.234;7.268;2023-03-14T15:19:00;8.90;99.90
11079;DHT22;5592;49.234;7.268;2023-03-14T15:21:28;8.90;99.90
11079;DHT22;5592;49.234;7.268;2023-03-14T15:23:54;8.80;99.90
11079;DHT22;5592;49.234;7.268;2023-03-14T15:26:26;8.70;99.90
11079;DHT22;5592;49.234;7.268;2023-03-14T15:28:53;8.60;99.90
11079;DHT22;5592;49.234;7.268;2023-03-14T15:31:20;8.70;99.90
11079;DHT22;5592;49.234;7.268;2023-03-14T15:33:46;8.70;99.90
11079;DHT22;5592;49.234;7.268;2023-03-14T15:36:23;8.80;99.90
11079;DHT22;5592;49.234;7.268;2023-03-14T15:38:50;8.90;99.90
11079;DHT22;5592;49.234;7.268;2023-03-14T15:41:16;8.80;99.90
11079;DHT22;5592;49.234;7.268;2023-03-14T15:43:42;8.80;99.90
11079;DHT22;5592;49.234;7.268;2023-03-14T15:46:11;8.70;99.90
11079;DHT22;5592;49.234;7.268;2023-03-14T15:48:37;8.70;99.90
11079;DHT22;5592;49.234;7.268;2023-03-14T15:51:03;8.60;99.90
11079;DHT22;5592;49.234;7.268;2023-03-14T15:53:28;8.70;99.90
11079;DHT22;5592;49.234;7.268;2023-03-14T15:55:54;8.60;99.90
11079;DHT22;5592;49.234;7.268;2023-03-14T15:58:21;8.60;99.90
11079;DHT22;5592;49.234;7.268;2023-03-14T16:00:46;8.50;99.90
11079;DHT22;5592;49.234;7.268;2023-03-14T16:03:12;8.40;99.90
11079;DHT22;5592;49.234;7.268;2023-03-14T16:05:39;8.40;99.90
11079;DHT22;5592;49.234;7.268;2023-03-14T16:08:05;8.30;99.90
11079;DHT22;5592;49.234;7.268;2023-03-14T16:10:31;8.30;99.90
11079;DHT22;5592;49.234;7.268;2023-03-14T16:12:57;8.20;99.90
11079;DHT22;5592;49.234;7.268;2023-03-14T16:15:22;8.20;99.90
11079;DHT22;5592;49.234;7.268;2023-03-14T16:17:52;8.20;99.90
11079;DHT22;5592;49.234;7.268;2023-03-14T16:20:18;8.10;99.90
11079;DHT22;5592;49.234;7.268;2023-03-14T16:22:45;8.00;99.90
11079;DHT22;5592;49.234;7.268;2023-03-14T16:25:11;8.00;99.90
11079;DHT22;5592;49.234;7.268;2023-03-14T16:27:37;7.90;99.90
11079;DHT22;5592;49.234;7.268;2023-03-14T16:30:05;7.80;99.90
11079;DHT22;5592;49.234;7.268;2023-03-14T16:32:31;7.90;99.90
11079;DHT22;5592;49.234;7.268;2023-03-14T16:34:57;7.90;99.90
11079;DHT22;5592;49.234;7.268;2023-03-14T16:37:23;7.80;99.90
11079;DHT22;5592;49.234;7.268;2023-03-14T16:39:51;7.70;99.90
11079;DHT22;5592;49.234;7.268;2023-03-14T16:42:17;7.70;99.90
11079;DHT22;5592;49.234;7.268;2023-03-14T16:44:43;7.70;99.90
11079;DHT22;5592;49.234;7.268;2023-03-14T16:47:09;7.60;99.90
11079;DHT22;5592;49.234;7.268;2023-03-14T16:49:34;7.50;99.90
11079;DHT22;5592;49.234;7.268;2023-03-14T16:52:00;7.50;99.90
11079;DHT22;5592;49.234;7.268;2023-03-14T16:54:26;7.50;99.90
11079;DHT22;5592;49.234;7.268;2023-03-14T16:56:51;7.40;99.90
11079;DHT22;5592;49.234;7.268;2023-03-14T16:59:18;7.40;99.90
11079;DHT22;5592;49.234;7.268;2023-03-14T17:01:43;7.40;99.90
11079;DHT22;5592;49.234;7.268;2023-03-14T17:04:09;7.40;99.90
11079;DHT22;5592;49.234;7.268;2023-03-14T17:06:36;7.30;99.90